Time;durP1;ratioP1;P1;durP2;ratioP2;P2;SDS_P1;SDS_P2;PMS_P1;PMS_P2;Temp;Humidity;BMP_temperature;BMP_pressure;BME280_temperature;BME280_humidity;BME280_pressure;Samples;Min_cycle;Max_cycle;Signal;HPM_P1;HPM_P2
2021/01/22 00:01:44;;;;;;;267.58;120.38;;;;;;;3.26;97.34;99885.81;5086335;28;20480;-76
2021/01/22 00:04:48;;;;;;;266.17;118.32;;;;;;;3.31;97.28;99891.66;5076237;28;20040;-77
2021/01/22 00:07:52;;;;;;;;;;;;;;;3.29;97.15;99886.47;5076735;28;20483;-75
2021/01/22 00:10:56;;;;;;;258.05;113.85;;;;;;;3.34;97.40;99869.41;5076049;28;19916;-76
2021/01/22 00:14:00;;;;;;;267.58;118.55;;;;;;;3.31;97.30;99888.19;5075094;28;20396;-75
2021/01/22 00:17:05;;;;;;;294.90;125.63;;;;;;;3.27;97.40;99838.00;5078837;28;20403;-74
2021/01/22 00:20:13;;;;;;;314.30;127.70;;;;;;;3.17;97.60;99844.00;5076764;28;20048;-75
2021/01/22 00:23:18;;;;;;;325.65;129.25;;;;;;;3.14;97.99;99797.31;5093851;28;20471;-75
2021/01/22 00:26:22;;;;;;;328.60;125.53;;;;;;;3.14;98.03;99801.78;5074683;28;20049;-75
2021/01/22 00:29:44;;;;;;;323.85;126.63;;;;;;;3.14;98.40;99786.72;5075390;28;20049;-75
2021/01/22 00:33:10;;;;;;;322.80;126.30;;;;;;;3.13;98.19;99782.38;5051192;28;20376;-76
2021/01/22 00:36:14;;;;;;;310.35;123.78;;;;;;;3.15;98.28;99787.56;5075671;28;20048;-75
2021/01/22 00:39:18;;;;;;;305.77;127.43;;;;;;;3.11;98.37;99746.31;5092928;28;20040;-76
2021/01/22 00:42:22;;;;;;;297.67;124.85;;;;;;;3.16;98.47;99776.84;5077907;28;20044;-79
2021/01/22 00:45:27;;;;;;;312.13;125.20;;;;;;;3.15;98.32;99801.69;5075328;28;20049;-75
2021/01/22 00:48:31;;;;;;;305.58;121.53;;;;;;;3.16;98.41;99789.28;5074792;28;20383;-77
2021/01/22 00:51:36;;;;;;;287.40;120.80;;;;;;;3.16;98.51;99800.72;5074278;28;20048;-75
2021/01/22 00:54:40;;;;;;;275.30;115.40;;;;;;;3.20;98.50;99788.13;5074414;28;20041;-76
2021/01/22 00:58:08;;;;;;;286.95;121.03;;;;;;;3.18;98.44;99817.41;5078082;28;20032;-76
2021/01/22 01:01:12;;;;;;;288.65;122.75;;;;;;;3.21;98.44;99803.91;5087768;28;20044;-76
2021/01/22 01:04:17;;;;;;;253.73;114.88;;;;;;;3.25;98.40;99816.03;5089278;28;20045;-76
2021/01/22 01:07:35;;;;;;;252.65;112.85;;;;;;;3.29;98.34;99827.28;5063190;28;20376;-76
2021/01/22 01:10:40;;;;;;;282.60;119.93;;;;;;;3.20;98.34;99849.97;5074101;28;20044;-75
2021/01/22 01:14:03;;;;;;;265.45;114.38;;;;;;;3.27;98.45;99827.38;5074607;28;20036;-77
2021/01/22 01:17:08;;;;;;;263.05;116.65;;;;;;;3.32;98.42;99842.13;5073565;28;20468;-76
2021/01/22 01:20:12;;;;;;;275.30;116.95;;;;;;;3.34;98.50;99819.88;5074546;28;20041;-79
2021/01/22 01:23:16;;;;;;;263.20;113.40;;;;;;;3.33;98.29;99814.66;5074635;28;20048;-76
2021/01/22 01:26:21;;;;;;;270.35;116.80;;;;;;;3.31;98.04;99829.84;5073581;28;20044;-76
2021/01/22 01:29:26;;;;;;;263.38;111.57;;;;;;;3.28;98.34;99830.91;5082306;28;20043;-77
2021/01/22 01:32:30;;;;;;;269.77;117.05;;;;;;;3.24;98.18;99810.81;5094963;28;20044;-75
2021/01/22 01:35:34;;;;;;;275.17;118.75;;;;;;;3.21;98.49;99811.00;5080294;28;20041;-77
2021/01/22 01:38:39;;;;;;;260.05;114.88;;;;;;;3.26;98.38;99809.75;5074522;28;20041;-78
2021/01/22 01:41:43;;;;;;;276.88;120.22;;;;;;;3.22;98.33;99802.13;5074273;28;20032;-76
2021/01/22 01:44:47;;;;;;;248.73;112.35;;;;;;;3.24;98.28;99795.75;5078106;28;20040;-74
2021/01/22 01:47:52;;;;;;;252.45;115.88;;;;;;;3.34;98.37;99808.41;5074251;28;20476;-76
2021/01/22 01:50:56;;;;;;;259.50;119.25;;;;;;;3.29;98.13;99806.91;5073813;28;20044;-76
2021/01/22 01:54:01;;;;;;;251.27;116.22;;;;;;;3.25;98.14;99799.28;5074275;28;20036;-76
2021/01/22 01:57:06;;;;;;;257.25;116.00;;;;;;;3.20;98.12;99834.06;5074161;28;20483;-74
2021/01/22 02:00:29;;;;;;;259.60;116.65;;;;;;;3.20;98.39;99790.78;5076117;28;20044;-75
2021/01/22 02:03:34;;;;;;;259.27;122.70;;;;;;;3.23;98.26;99807.31;5077408;28;20052;-73
2021/01/22 02:06:38;;;;;;;276.10;125.47;;;;;;;3.23;98.37;99793.22;5077854;28;20049;-75
2021/01/22 02:09:43;;;;;;;279.98;124.65;;;;;;;3.11;98.55;99792.22;5078358;28;20040;-75
2021/01/22 02:12:51;;;;;;;275.20;123.40;;;;;;;3.15;98.48;99783.13;5078320;28;20041;-76
2021/01/22 02:15:56;;;;;;;284.92;127.35;;;;;;;3.18;98.46;99785.59;5095223;28;20043;-76
2021/01/22 02:19:03;;;;;;;285.27;126.45;;;;;;;3.18;98.83;99756.41;5098318;28;20048;-74
2021/01/22 02:22:07;;;;;;;280.35;125.35;;;;;;;3.16;98.84;99776.84;5097825;28;20394;-75
2021/01/22 02:25:13;;;;;;;277.55;127.30;;;;;;;3.17;98.73;99778.56;5096977;28;20040;-75
2021/01/22 02:28:19;;;;;;;281.92;126.90;;;;;;;3.19;98.85;99757.22;5098059;28;20048;-74
2021/01/22 02:31:26;;;;;;;292.80;128.52;;;;;;;3.16;98.98;99755.63;5097829;28;20044;-75
2021/01/22 02:34:34;;;;;;;273.45;126.18;;;;;;;3.25;98.96;99759.50;5098057;28;20471;-78
2021/01/22 02:37:41;;;;;;;272.10;128.15;;;;;;;3.28;98.97;99773.38;5097126;28;20032;-77
2021/01/22 02:40:47;;;;;;;301.15;136.13;;;;;;;3.26;99.04;99764.69;5097030;28;20036;-76
2021/01/22 02:43:54;;;;;;;290.27;131.20;;;;;;;3.26;98.92;99775.28;5097503;28;20051;-76
2021/01/22 02:47:00;;;;;;;278.08;124.45;;;;;;;3.33;98.82;99766.94;5096777;28;20048;-75
2021/01/22 02:50:05;;;;;;;293.67;130.93;;;;;;;3.34;99.00;99758.84;5097814;28;20043;-76
2021/01/22 02:53:09;;;;;;;302.92;132.05;;;;;;;3.22;98.98;99776.47;5097840;28;20451;-75
2021/01/22 02:56:23;;;;;;;306.52;133.23;;;;;;;3.24;99.08;99763.94;5097898;28;20048;-75
2021/01/22 02:59:46;;;;;;;304.33;131.73;;;;;;;3.27;99.06;99750.47;5096855;28;20044;-79
2021/01/22 03:03:08;;;;;;;305.92;135.32;;;;;;;3.27;99.32;99750.47;5097116;28;20040;-77
2021/01/22 03:06:20;;;;;;;314.17;138.13;;;;;;;3.29;99.16;99739.75;5096963;28;20044;-75
2021/01/22 03:09:26;;;;;;;307.70;138.88;;;;;;;3.31;99.49;99747.63;5095893;28;20485;-78
2021/01/22 03:12:31;;;;;;;311.70;142.90;;;;;;;3.27;99.28;99750.47;5096338;28;20546;-75
2021/01/22 03:15:35;;;;;;;311.42;143.40;;;;;;;3.21;99.24;99772.09;5097129;28;20040;-77
2021/01/22 03:18:56;;;;;;;338.42;147.48;;;;;;;3.19;99.49;99733.38;5096499;28;20482;-77
2021/01/22 03:22:01;;;;;;;303.10;142.48;;;;;;;3.24;99.70;99740.06;5095866;28;20104;-77
2021/01/22 03:25:06;;;;;;;291.63;143.93;;;;;;;3.23;99.40;99726.94;5096498;28;20044;-75
2021/01/22 03:28:11;;;;;;;278.38;142.73;;;;;;;3.23;99.48;99758.75;5081497;28;20037;-75
2021/01/22 03:31:16;;;;;;;271.85;139.82;;;;;;;3.32;99.95;99781.13;5095681;28;20044;-79
2021/01/22 03:34:21;;;;;;;276.52;141.27;;;;;;;3.32;99.70;99773.19;5096333;28;20036;-75
2021/01/22 03:37:25;;;;;;;259.67;139.70;;;;;;;3.35;99.88;99770.31;5096396;28;20399;-76
2021/01/22 03:40:29;;;;;;;265.08;138.68;;;;;;;3.28;99.62;99738.06;5079566;28;20036;-77
2021/01/22 03:43:34;;;;;;;260.48;140.32;;;;;;;3.28;99.61;99746.84;5076215;28;20041;-76
2021/01/22 03:46:38;;;;;;;254.55;134.75;;;;;;;3.32;99.75;99741.34;5076636;28;20044;-75
2021/01/22 03:49:43;;;;;;;251.45;137.43;;;;;;;3.32;99.77;99734.25;5075358;28;20040;-75
2021/01/22 03:52:47;;;;;;;240.15;131.38;;;;;;;3.31;99.71;99735.19;5075785;28;20040;-74
2021/01/22 03:55:51;;;;;;;233.48;129.20;;;;;;;3.28;99.67;99727.47;5075934;28;20044;-77
2021/01/22 03:58:56;;;;;;;222.98;128.15;;;;;;;3.34;99.80;99728.81;5076143;28;20037;-78
2021/01/22 04:02:00;;;;;;;213.85;121.10;;;;;;;3.34;99.64;99718.22;5075721;28;20040;-77
2021/01/22 04:05:05;;;;;;;209.93;121.20;;;;;;;3.33;99.61;99706.78;5075866;28;20037;-73
2021/01/22 04:08:09;;;;;;;206.90;118.53;;;;;;;3.35;99.61;99714.63;5075868;28;20044;-73
2021/01/22 04:11:13;;;;;;;192.93;113.07;;;;;;;3.36;99.62;99701.25;5075512;28;20036;-76
2021/01/22 04:14:17;;;;;;;186.13;110.40;;;;;;;3.39;99.71;99698.38;5075896;28;20049;-74
2021/01/22 04:17:22;;;;;;;179.18;110.03;;;;;;;3.44;99.70;99709.53;5075938;28;20033;-75
2021/01/22 04:20:26;;;;;;;177.88;107.15;;;;;;;3.50;99.51;99706.47;5075633;28;20033;-76
2021/01/22 04:23:31;;;;;;;166.48;102.30;;;;;;;3.55;99.18;99695.53;5082030;28;20053;-73
2021/01/22 04:26:35;;;;;;;166.60;100.13;;;;;;;3.57;99.19;99702.44;5075010;28;20040;-75
2021/01/22 04:29:39;;;;;;;157.85;99.13;;;;;;;3.58;98.72;99698.81;5075144;28;20045;-74
2021/01/22 04:32:44;;;;;;;159.02;98.78;;;;;;;3.59;99.03;99708.47;5075632;28;20063;-74
2021/01/22 04:35:48;;;;;;;156.35;94.40;;;;;;;3.52;98.85;99698.41;5075183;28;20501;-76
2021/01/22 04:38:52;;;;;;;155.68;94.35;;;;;;;3.52;98.55;99695.75;5075447;28;20099;-77
2021/01/22 04:41:58;;;;;;;160.25;96.28;;;;;;;3.44;98.40;99698.06;5075344;28;20387;-75
2021/01/22 04:45:04;;;;;;;159.52;93.75;;;;;;;3.41;98.59;99675.25;5075395;28;20379;-78
2021/01/22 04:48:08;;;;;;;156.82;92.43;;;;;;;3.38;98.53;99701.16;5075154;28;20052;-76
2021/01/22 04:51:15;;;;;;;148.88;89.18;;;;;;;3.44;98.56;99709.53;5073954;28;20048;-77
2021/01/22 04:54:36;;;;;;;145.63;89.13;;;;;;;3.48;98.44;99704.88;5074998;28;20067;-75
2021/01/22 04:57:43;;;;;;;144.18;85.80;;;;;;;3.46;98.53;99681.09;5074697;28;20059;-74
2021/01/22 05:00:51;;;;;;;141.55;87.00;;;;;;;3.39;98.54;99652.44;5074212;28;20483;-74
2021/01/22 05:03:59;;;;;;;145.15;86.03;;;;;;;3.38;98.53;99656.94;5074564;28;20079;-79
2021/01/22 05:07:05;;;;;;;132.77;81.60;;;;;;;3.44;98.50;99671.53;5074174;28;20052;-72
2021/01/22 05:10:09;;;;;;;137.63;80.55;;;;;;;3.44;98.42;99659.13;5074227;28;20404;-74
2021/01/22 05:13:13;;;;;;;130.43;81.32;;;;;;;3.46;98.38;99659.00;5074267;28;20048;-77
2021/01/22 05:16:17;;;;;;;133.95;82.40;;;;;;;3.51;98.35;99680.75;5074155;28;20067;-75
2021/01/22 05:19:22;;;;;;;131.20;81.22;;;;;;;3.54;98.44;99691.16;5074350;28;20043;-75
2021/01/22 05:22:26;;;;;;;129.55;81.35;;;;;;;3.55;98.27;99690.22;5074555;28;20498;-76
2021/01/22 05:25:32;;;;;;;129.02;79.45;;;;;;;3.51;98.19;99672.81;5073520;28;20075;-80
2021/01/22 05:28:47;;;;;;;130.43;79.47;;;;;;;3.51;98.20;99672.81;5084786;28;20047;-75
2021/01/22 05:31:51;;;;;;;126.57;79.57;;;;;;;3.46;98.18;99666.97;5074074;28;20052;-76
2021/01/22 05:34:56;;;;;;;123.43;78.70;;;;;;;3.49;98.44;99685.34;5072416;28;20047;-76
2021/01/22 05:38:01;;;;;;;129.35;80.93;;;;;;;3.47;98.25;99687.25;5073747;28;20055;-76
2021/01/22 05:41:06;;;;;;;130.43;80.47;;;;;;;3.50;98.33;99695.88;5073892;28;20051;-76
2021/01/22 05:44:19;;;;;;;120.28;76.72;;;;;;;3.51;98.19;99678.13;5074054;28;20127;-75
2021/01/22 05:47:23;;;;;;;121.35;75.13;;;;;;;3.55;98.19;99674.31;5084475;28;20063;-76
2021/01/22 05:50:44;;;;;;;124.30;76.82;;;;;;;3.48;98.14;99670.41;5079414;28;20071;-77
2021/01/22 05:53:48;;;;;;;111.78;71.28;;;;;;;3.47;98.19;99642.16;5093005;28;20055;-77
2021/01/22 05:56:57;;;;;;;115.70;71.18;;;;;;;3.40;98.12;99651.50;5093814;28;20059;-76
2021/01/22 06:00:12;;;;;;;108.85;68.43;;;;;;;3.43;98.11;99659.25;5094059;28;20047;-74
2021/01/22 06:03:22;;;;;;;108.65;69.07;;;;;;;3.46;98.26;99677.59;5092422;28;20070;-74
2021/01/22 06:06:32;;;;;;;171.55;113.70;;;;;;;3.50;97.95;99676.44;5093681;28;20071;-76
2021/01/22 06:09:36;;;;;;;141.38;91.93;;;;;;;3.54;98.05;99665.50;5093502;28;20040;-76
2021/01/22 06:12:52;;;;;;;102.93;65.28;;;;;;;3.48;98.25;99667.75;5093747;28;20055;-76
2021/01/22 06:15:58;;;;;;;90.75;60.13;;;;;;;3.46;98.29;99643.94;5093393;28;20059;-78
2021/01/22 06:19:05;;;;;;;95.88;61.40;;;;;;;3.49;98.16;99645.53;5093154;28;20158;-74
2021/01/22 06:22:28;;;;;;;95.13;62.10;;;;;;;3.51;97.98;99656.88;5093473;28;20051;-74
2021/01/22 06:25:34;;;;;;;91.43;59.63;;;;;;;3.53;98.28;99666.44;5092203;28;20070;-79
2021/01/22 06:28:40;;;;;;;97.63;60.72;;;;;;;3.54;98.26;99633.66;5093824;28;20486;-78
2021/01/22 06:31:45;;;;;;;92.82;60.05;;;;;;;3.55;97.81;99619.44;5093254;28;20051;-75
2021/01/22 06:34:51;;;;;;;95.32;60.78;;;;;;;3.56;97.96;99644.16;5093782;28;20047;-75
2021/01/22 06:37:59;;;;;;;94.80;59.13;;;;;;;3.52;97.94;99664.75;5093374;28;20059;-77
2021/01/22 06:41:03;;;;;;;96.53;58.80;;;;;;;3.57;98.05;99672.41;5093479;28;20055;-75
2021/01/22 06:44:07;;;;;;;90.97;58.47;;;;;;;3.58;98.17;99671.44;5092571;28;20485;-76
2021/01/22 06:47:12;;;;;;;94.05;57.67;;;;;;;3.56;98.07;99660.94;5096423;28;20047;-77
2021/01/22 06:50:21;;;;;;;92.32;57.63;;;;;;;3.55;97.85;99656.59;5095969;28;20055;-75
2021/01/22 06:53:25;;;;;;;100.30;61.38;;;;;;;3.58;98.27;99655.53;5097298;28;20386;-78
2021/01/22 06:56:30;;;;;;;93.18;58.65;;;;;;;3.62;98.10;99668.47;5096263;28;20051;-79
2021/01/22 06:59:37;;;;;;;99.43;60.35;;;;;;;3.51;97.72;99646.28;5097195;28;20051;-74
2021/01/22 07:02:42;;;;;;;99.43;60.65;;;;;;;3.52;97.94;99643.53;5096496;28;20050;-74
2021/01/22 07:05:46;;;;;;;102.50;59.83;;;;;;;3.54;97.66;99646.06;5096504;28;20055;-74
2021/01/22 07:08:56;;;;;;;97.65;59.38;;;;;;;3.53;98.08;99653.16;5076977;28;20063;-75
2021/01/22 07:12:00;;;;;;;95.65;58.55;;;;;;;3.54;97.96;99648.72;5075669;28;20055;-75
2021/01/22 07:15:20;;;;;;;94.55;61.15;;;;;;;3.55;97.91;99645.97;5073748;28;20052;-75
2021/01/22 07:18:26;;;;;;;104.50;63.47;;;;;;;3.49;97.73;99637.59;5086375;28;20446;-76
2021/01/22 07:21:39;;;;;;;106.15;62.00;;;;;;;3.43;97.86;99633.59;5092709;28;20805;-77
2021/01/22 07:24:54;;;;;;;100.45;61.50;;;;;;;3.53;98.02;99639.91;5091758;28;20051;-74
2021/01/22 07:28:23;;;;;;;97.43;59.67;;;;;;;3.58;98.09;99653.69;5093471;28;20497;-73
2021/01/22 07:31:52;;;;;;;99.25;60.83;;;;;;;3.61;97.90;99672.06;5095440;28;20055;-75
2021/01/22 07:34:57;;;;;;;90.20;57.03;;;;;;;3.66;98.08;99656.66;5095109;28;20046;-74
2021/01/22 07:38:01;;;;;;;90.88;60.05;;;;;;;3.68;97.51;99661.88;5095152;28;20403;-75
2021/01/22 07:41:07;;;;;;;95.30;61.38;;;;;;;3.76;97.51;99659.53;5096523;28;20055;-74
2021/01/22 07:44:24;;;;;;;85.40;56.40;;;;;;;3.78;97.34;99674.38;5095675;28;20059;-74
2021/01/22 07:47:33;;;;;;;85.82;57.45;;;;;;;3.76;97.22;99648.91;5094843;28;20585;-76
2021/01/22 07:50:37;;;;;;;77.72;53.88;;;;;;;3.72;97.09;99663.34;5096494;28;20488;-75
2021/01/22 07:53:42;;;;;;;80.60;57.42;;;;;;;3.82;96.87;99645.81;5095601;28;20079;-76
2021/01/22 07:56:48;;;;;;;81.88;54.78;;;;;;;3.87;97.21;99662.28;5095004;28;20049;-75
2021/01/22 07:59:53;;;;;;;77.13;54.63;;;;;;;3.94;96.72;99656.41;5094432;28;20051;-77
2021/01/22 08:02:58;;;;;;;75.25;53.15;;;;;;;4.05;96.71;99645.00;5095447;28;20044;-75
2021/01/22 08:06:03;;;;;;;73.47;52.83;;;;;;;4.16;96.38;99655.72;5095372;28;20383;-77
2021/01/22 08:09:16;;;;;;;76.18;55.60;;;;;;;4.29;95.66;99651.22;5092638;28;20051;-75
2021/01/22 08:12:21;;;;;;;65.15;50.28;;;;;;;4.64;95.17;99631.78;5095319;28;20055;-76
2021/01/22 08:15:27;;;;;;;63.25;48.05;;;;;;;4.84;94.26;99631.16;5095346;28;20051;-75
2021/01/22 08:18:31;;;;;;;62.22;46.78;;;;;;;4.94;93.55;99632.13;5095338;28;20051;-76
2021/01/22 08:21:38;;;;;;;63.50;46.85;;;;;;;5.11;92.64;99627.19;5094352;28;20047;-75
2021/01/22 08:24:50;;;;;;;64.05;47.80;;;;;;;5.06;91.34;99624.03;5094994;28;20059;-75
2021/01/22 08:28:01;;;;;;;63.95;48.72;;;;;;;5.17;91.10;99599.28;5094774;28;20047;-77
2021/01/22 08:31:12;;;;;;;63.78;48.80;;;;;;;5.69;89.62;99617.34;5094828;28;20414;-76
2021/01/22 08:34:17;;;;;;;66.72;48.20;;;;;;;6.43;86.74;99606.78;5094916;28;20157;-77
2021/01/22 08:37:22;;;;;;;62.88;46.65;;;;;;;6.64;84.63;99598.00;5093451;28;20070;-75
2021/01/22 08:40:41;;;;;;;57.60;43.72;;;;;;;6.49;84.09;99589.47;5093455;28;20059;-76
2021/01/22 08:43:50;;;;;;;61.70;45.83;;;;;;;6.19;84.33;99599.97;5094577;28;20387;-76
2021/01/22 08:46:57;;;;;;;61.30;46.28;;;;;;;5.96;85.50;99591.19;5094717;28;20043;-75
2021/01/22 08:50:03;;;;;;;67.35;50.97;;;;;;;5.82;86.11;99605.59;5093795;28;20047;-75
2021/01/22 08:53:11;;;;;;;76.63;50.80;;;;;;;5.83;86.77;99609.94;5094584;28;20054;-74
2021/01/22 08:56:17;;;;;;;70.82;50.75;;;;;;;5.88;86.58;99607.78;5094553;28;20063;-74
2021/01/22 08:59:22;;;;;;;69.75;49.33;;;;;;;5.83;86.82;99601.09;5094503;28;20379;-75
2021/01/22 09:02:48;;;;;;;71.40;50.58;;;;;;;5.83;87.24;99580.63;5093427;28;20051;-75
2021/01/22 09:05:53;;;;;;;69.88;47.78;;;;;;;5.85;87.19;99576.06;5094434;28;20039;-75
2021/01/22 09:09:01;;;;;;;76.68;53.30;;;;;;;5.67;87.63;99600.63;5093004;28;20047;-77
2021/01/22 09:12:16;;;;;;;78.60;51.95;;;;;;;5.54;87.74;99611.41;5081844;28;20501;-76
2021/01/22 09:15:21;;;;;;;75.53;52.97;;;;;;;5.40;88.42;99606.34;5094292;28;20051;-76
2021/01/22 09:18:25;;;;;;;84.10;54.60;;;;;;;5.28;88.56;99613.44;5094171;28;20055;-77
2021/01/22 09:21:29;;;;;;;83.63;55.33;;;;;;;5.08;89.07;99602.66;5094078;28;20051;-74
2021/01/22 09:24:39;;;;;;;87.28;55.45;;;;;;;4.94;90.09;99597.53;5093615;28;20055;-74
2021/01/22 09:27:45;;;;;;;90.38;59.28;;;;;;;4.91;90.79;99584.50;5093210;28;20058;-74
2021/01/22 09:30:49;;;;;;;92.43;59.40;;;;;;;4.77;91.29;99600.66;5093587;28;20051;-76
2021/01/22 09:33:54;;;;;;;95.22;58.22;;;;;;;4.67;91.90;99589.88;5080137;28;20052;-76
2021/01/22 09:36:59;;;;;;;96.00;60.75;;;;;;;4.65;91.91;99598.91;5092192;28;20054;-75
2021/01/22 09:40:05;;;;;;;96.53;59.20;;;;;;;4.65;92.66;99591.81;5093139;28;20063;-74
2021/01/22 09:43:13;;;;;;;99.22;60.75;;;;;;;4.73;92.76;99592.06;5093607;28;20067;-74
2021/01/22 09:46:19;;;;;;;109.85;62.67;;;;;;;4.73;92.73;99581.44;5093141;28;20399;-78
2021/01/22 09:49:23;;;;;;;109.55;65.05;;;;;;;4.75;92.82;99546.75;5091971;28;20059;-77
2021/01/22 09:52:28;;;;;;;114.03;65.13;;;;;;;4.73;92.57;99556.66;5093329;28;20059;-75
2021/01/22 09:55:32;;;;;;;108.97;65.03;;;;;;;4.81;92.94;99557.78;5093319;28;20070;-75
2021/01/22 09:58:37;;;;;;;106.38;64.80;;;;;;;4.85;92.96;99571.69;5091601;28;20051;-77
2021/01/22 10:01:41;;;;;;;105.57;64.18;;;;;;;4.86;92.73;99565.41;5093398;28;20047;-76
2021/01/22 10:04:45;;;;;;;108.32;65.00;;;;;;;4.81;92.60;99548.97;5092677;28;20055;-77
2021/01/22 10:07:51;;;;;;;104.55;63.25;;;;;;;4.87;92.63;99544.00;5092110;28;20044;-77
2021/01/22 10:10:55;;;;;;;106.80;63.15;;;;;;;4.81;92.96;99538.31;5092813;28;20055;-76
2021/01/22 10:13:59;;;;;;;110.47;65.00;;;;;;;4.80;92.85;99537.47;5092090;28;20047;-76
2021/01/22 10:17:04;;;;;;;108.20;64.10;;;;;;;4.82;92.56;99545.31;5092277;28;20039;-77
2021/01/22 10:20:09;;;;;;;105.75;65.45;;;;;;;4.81;92.83;99535.66;5092205;28;20509;-77
2021/01/22 10:23:13;;;;;;;102.38;62.90;;;;;;;4.78;92.66;99522.59;5097092;28;20047;-76
2021/01/22 10:26:19;;;;;;;96.82;61.83;;;;;;;4.77;93.03;99531.53;5096608;28;20052;-77
2021/01/22 10:29:25;;;;;;;95.50;59.58;;;;;;;4.73;92.96;99527.44;5096357;28;20146;-76
2021/01/22 10:32:29;;;;;;;94.50;59.13;;;;;;;4.74;92.86;99505.22;5095827;28;20047;-75
2021/01/22 10:35:34;;;;;;;87.28;55.88;;;;;;;4.81;92.87;99523.22;5094875;28;20063;-74
2021/01/22 10:38:38;;;;;;;91.25;58.20;;;;;;;4.88;93.18;99512.94;5095598;28;20043;-75
2021/01/22 10:41:43;;;;;;;93.05;60.50;;;;;;;4.82;93.44;99513.41;5096174;28;20055;-76
2021/01/22 10:44:48;;;;;;;89.00;57.05;;;;;;;4.85;93.33;99483.94;5096264;28;20047;-75
2021/01/22 10:47:52;;;;;;;83.72;52.20;;;;;;;4.90;93.03;99495.91;5096626;28;20051;-75
2021/01/22 10:50:57;;;;;;;79.32;52.42;;;;;;;4.81;92.94;99488.66;5095781;28;20063;-75
2021/01/22 10:54:02;;;;;;;80.15;53.97;;;;;;;4.80;93.00;99480.78;5095334;28;20051;-75
2021/01/22 10:57:07;;;;;;;76.10;51.85;;;;;;;4.89;92.83;99477.44;5096256;28;20063;-76
2021/01/22 11:00:12;;;;;;;81.75;51.83;;;;;;;4.98;92.68;99463.41;5095546;28;20046;-75
2021/01/22 11:03:16;;;;;;;77.80;52.25;;;;;;;5.14;92.71;99440.78;5095948;28;20062;-76
2021/01/22 11:06:20;;;;;;;74.43;51.08;;;;;;;5.18;92.02;99450.19;5096001;28;20066;-76
2021/01/22 11:09:25;;;;;;;76.25;52.28;;;;;;;5.25;91.73;99442.59;5096268;28;20066;-77
2021/01/22 11:12:30;;;;;;;72.97;49.40;;;;;;;5.24;91.55;99436.41;5094592;28;20047;-75
2021/01/22 11:15:34;;;;;;;71.30;47.05;;;;;;;5.18;91.38;99431.56;5095929;28;20051;-76
2021/01/22 11:18:39;;;;;;;71.82;49.05;;;;;;;5.14;91.44;99408.00;5095670;28;20403;-80
2021/01/22 11:21:43;;;;;;;70.07;49.35;;;;;;;5.09;91.69;99394.25;5095667;28;20059;-74
2021/01/22 11:24:48;;;;;;;74.72;49.55;;;;;;;5.03;91.59;99408.91;5095181;28;20074;-75
2021/01/22 11:27:52;;;;;;;75.68;49.55;;;;;;;5.09;91.84;99384.44;5094798;28;20533;-76
2021/01/22 11:30:56;;;;;;;76.68;49.55;;;;;;;5.20;91.83;99379.13;5095413;28;20055;-76
2021/01/22 11:34:01;;;;;;;67.43;46.67;;;;;;;5.32;91.31;99377.25;5094410;28;20067;-75
2021/01/22 11:37:05;;;;;;;73.05;50.58;;;;;;;5.43;90.89;99353.25;5095926;28;20051;-75
2021/01/22 11:40:11;;;;;;;76.65;48.60;;;;;;;5.59;90.40;99347.53;5095471;28;20403;-74
2021/01/22 11:43:15;;;;;;;71.45;48.25;;;;;;;5.79;90.01;99336.06;5094933;28;20055;-75
2021/01/22 11:46:21;;;;;;;65.15;43.95;;;;;;;5.79;88.22;99312.94;5095499;28;20062;-79
2021/01/22 11:49:27;;;;;;;57.70;40.58;;;;;;;5.96;88.25;99324.00;5095398;28;20070;-75
2021/01/22 11:52:31;;;;;;;59.08;42.10;;;;;;;5.89;87.38;99337.84;5095097;28;20047;-77
2021/01/22 11:55:39;;;;;;;53.88;38.90;;;;;;;5.81;88.17;99324.31;5094871;28;20387;-79
2021/01/22 11:58:43;;;;;;;59.13;41.65;;;;;;;5.86;88.12;99315.94;5094681;28;20500;-74
2021/01/22 12:01:47;;;;;;;53.58;38.15;;;;;;;5.91;88.47;99321.72;5095617;28;20047;-77
2021/01/22 12:04:52;;;;;;;55.53;41.10;;;;;;;5.89;88.28;99303.22;5095498;28;20047;-74
2021/01/22 12:07:56;;;;;;;58.15;41.38;;;;;;;5.84;88.38;99305.44;5094305;28;20051;-76
2021/01/22 12:11:01;;;;;;;61.30;43.10;;;;;;;5.74;88.56;99298.31;5094416;28;20047;-77
2021/01/22 12:14:05;;;;;;;66.60;43.50;;;;;;;5.63;89.41;99275.25;5094374;28;20118;-77
2021/01/22 12:17:09;;;;;;;63.20;44.90;;;;;;;5.55;90.00;99272.44;5095028;28;20043;-77
2021/01/22 12:20:14;;;;;;;63.75;44.30;;;;;;;5.57;89.96;99275.81;5095263;28;20391;-74
2021/01/22 12:23:18;;;;;;;61.13;44.05;;;;;;;5.65;90.11;99233.38;5095053;28;20051;-76
2021/01/22 12:26:23;;;;;;;63.75;44.17;;;;;;;5.76;89.11;99220.00;5094502;28;20513;-75
2021/01/22 12:29:28;;;;;;;65.15;45.55;;;;;;;5.92;88.63;99218.72;5094144;28;20051;-75
2021/01/22 12:32:32;;;;;;;63.42;45.08;;;;;;;6.03;88.12;99207.97;5094964;28;20466;-75
2021/01/22 12:35:36;;;;;;;58.75;42.60;;;;;;;5.98;88.38;99215.50;5094255;28;20118;-75
2021/01/22 12:38:41;;;;;;;56.75;42.20;;;;;;;5.88;88.34;99213.66;5095110;28;20490;-74
2021/01/22 12:41:45;;;;;;;57.97;41.60;;;;;;;5.85;88.32;99208.59;5094054;28;20062;-78
2021/01/22 12:44:50;;;;;;;55.28;41.72;;;;;;;5.77;88.42;99191.56;5094416;28;20387;-76
2021/01/22 12:47:54;;;;;;;56.95;41.67;;;;;;;5.77;87.94;99196.91;5094698;28;20483;-74
2021/01/22 12:50:59;;;;;;;54.45;40.55;;;;;;;5.81;87.99;99193.84;5094494;28;20383;-75
2021/01/22 12:54:03;;;;;;;51.10;39.50;;;;;;;5.86;88.03;99169.50;5094841;28;20486;-76
2021/01/22 12:57:08;;;;;;;55.80;41.20;;;;;;;5.93;87.71;99167.97;5094529;28;20135;-76
2021/01/22 13:00:13;;;;;;;54.47;41.25;;;;;;;6.00;87.55;99163.78;5093865;28;20055;-76
2021/01/22 13:03:17;;;;;;;52.22;40.75;;;;;;;5.96;87.53;99162.38;5094313;28;20055;-75
2021/01/22 13:06:22;;;;;;;51.15;40.35;;;;;;;5.76;87.53;99163.25;5094396;28;20047;-75
2021/01/22 13:09:26;;;;;;;57.63;40.88;;;;;;;5.68;87.87;99149.75;5094251;28;20063;-75
2021/01/22 13:12:31;;;;;;;54.35;41.42;;;;;;;5.60;87.82;99130.97;5093442;28;20486;-75
2021/01/22 13:15:35;;;;;;;59.85;44.30;;;;;;;5.61;88.86;99122.00;5094121;28;20493;-74
2021/01/22 13:18:40;;;;;;;59.75;43.00;;;;;;;5.79;88.56;99120.38;5093320;28;20051;-75
2021/01/22 13:21:44;;;;;;;54.80;40.60;;;;;;;5.75;87.86;99119.81;5094150;28;20399;-75
2021/01/22 13:24:49;;;;;;;57.15;42.08;;;;;;;5.85;88.00;99120.72;5093887;28;20051;-75
2021/01/22 13:27:54;;;;;;;57.65;42.33;;;;;;;5.80;88.31;99098.94;5093720;28;20399;-74
2021/01/22 13:30:58;;;;;;;56.00;41.60;;;;;;;5.83;88.62;99088.03;5094003;28;20059;-79
2021/01/22 13:34:03;;;;;;;54.28;41.22;;;;;;;5.78;88.66;99078.75;5093613;28;20059;-80
2021/01/22 13:37:07;;;;;;;52.47;39.22;;;;;;;5.82;88.79;99067.72;5093805;28;20055;-79
2021/01/22 13:40:15;;;;;;;63.33;42.85;;;;;;;5.72;88.95;99058.03;5094001;28;20055;-74
2021/01/22 13:43:21;;;;;;;56.92;40.17;;;;;;;5.68;89.02;99054.78;5092631;28;20047;-75
2021/01/22 13:46:26;;;;;;;59.28;42.17;;;;;;;5.61;89.35;99061.63;5093450;28;20039;-74
2021/01/22 13:49:30;;;;;;;56.03;41.25;;;;;;;5.64;89.93;99061.34;5093780;28;20048;-74
2021/01/22 13:52:34;;;;;;;63.90;43.58;;;;;;;5.54;90.52;99057.81;5092516;28;20066;-75
2021/01/22 13:55:39;;;;;;;65.28;47.08;;;;;;;5.40;90.38;99067.97;5093022;28;20043;-73
2021/01/22 13:58:43;;;;;;;68.25;47.88;;;;;;;5.44;90.92;99043.63;5092460;28;20418;-76
2021/01/22 14:01:49;;;;;;;74.50;50.22;;;;;;;5.30;91.88;99036.03;5092429;28;20059;-75
2021/01/22 14:04:54;;;;;;;70.70;48.50;;;;;;;5.25;92.19;99035.56;5090433;28;20047;-75
2021/01/22 14:07:58;;;;;;;79.47;53.55;;;;;;;5.17;92.53;99022.94;5091064;28;20051;-76
2021/01/22 14:11:03;;;;;;;84.22;55.92;;;;;;;5.11;92.99;99039.41;5092447;28;20470;-75
2021/01/22 14:14:07;;;;;;;85.47;58.10;;;;;;;5.10;93.02;99029.78;5080725;28;20371;-73
2021/01/22 14:17:12;;;;;;;83.13;56.17;;;;;;;5.04;93.01;99016.16;5093369;28;20055;-75
2021/01/22 14:20:16;;;;;;;101.57;67.28;;;;;;;5.03;93.72;99019.81;5093470;28;20039;-73